Ocoee 1 Observed Data For Previous 48 Hours

Caption
Day and Hour Reservoir Elevation (behind dam)* Tailwater Elevation (below dam)* Average Hourly Discharge*
1/15/2019 2 AM EST 828.54 716.26 2,614
1/15/2019 3 AM EST 828.55 716.27 2,619
1/15/2019 4 AM EST 828.54 716.27 2,619
1/15/2019 5 AM EST 828.55 716.27 2,619
1/15/2019 6 AM EST 828.55 716.26 2,623
1/15/2019 7 AM EST 828.55 716.27 2,623
1/15/2019 8 AM EST 828.55 716.27 2,623
1/15/2019 9 AM EST 828.56 716.27 2,627
1/15/2019 10 AM EST 828.56 716.28 2,632
1/15/2019 11 AM EST 828.56 716.28 2,632
1/15/2019 12 PM EST 828.56 716.30 2,632
1/15/2019 1 PM EST 828.56 716.29 2,632
1/15/2019 2 PM EST 828.57 716.29 2,636
1/15/2019 3 PM EST 828.57 716.30 2,640
1/15/2019 4 PM EST 828.56 716.29 2,636
1/15/2019 5 PM EST 828.58 716.30 2,640
1/15/2019 6 PM EST 828.62 716.33 2,666
1/15/2019 7 PM EST 828.67 716.36 2,704
1/15/2019 8 PM EST 828.67 718.24 3,815
1/15/2019 9 PM EST 828.70 717.35 3,410
1/15/2019 10 PM EST 828.73 717.35 2,696
1/15/2019 11 PM EST 828.73 717.33 2,697
1/16/2019 12 AM EST 828.75 717.34 2,695
1/16/2019 1 AM EST 828.76 717.35 2,710
1/16/2019 2 AM EST 828.77 717.35 2,708
1/16/2019 3 AM EST 828.78 717.35 2,708
1/16/2019 4 AM EST 828.79 717.35 2,712
1/16/2019 5 AM EST 828.80 717.35 2,712
1/16/2019 6 AM EST 828.79 717.34 2,705
1/16/2019 7 AM EST 828.77 717.34 2,707
1/16/2019 8 AM EST 828.75 717.33 2,704
1/16/2019 9 AM EST 828.72 717.31 2,676
1/16/2019 10 AM EST 828.72 717.34 2,697
1/16/2019 11 AM EST 828.71 717.33 2,694
1/16/2019 12 PM EST 828.70 717.32 2,688
1/16/2019 1 PM EST 828.68 717.36 2,707
1/16/2019 2 PM EST 828.67 717.35 2,706
1/16/2019 3 PM EST 828.66 717.35 2,707
1/16/2019 4 PM EST 828.64 717.36 2,704
1/16/2019 5 PM EST 828.63 717.34 2,699
1/16/2019 6 PM EST 828.62 717.35 2,697
1/16/2019 7 PM EST 828.61 717.36 2,700
1/16/2019 8 PM EST 828.60 717.44 2,704
1/16/2019 9 PM EST 828.56 717.82 3,193
1/16/2019 10 PM EST 828.55 717.34 2,676
1/16/2019 11 PM EST 828.54 717.32 2,679
1/17/2019 12 AM EST 828.53 717.33 2,673
1/17/2019 1 AM EST 828.52 717.33 2,681
1/17/2019 2 AM EST 828.51 717.32 2,673
1/17/2019 3 AM EST 828.50 717.33 2,672
1/17/2019 4 AM EST 828.48 717.33 2,670
1/17/2019 5 AM EST 828.51 717.32 2,675
1/17/2019 6 AM EST 828.55 717.29 2,652
1/17/2019 7 AM EST 828.58 717.31 2,664
1/17/2019 8 AM EST 828.60 717.31 2,672
1/17/2019 9 AM EST 828.63 717.32 2,678
1/17/2019 10 AM EST 828.64 718.26 3,153
1/17/2019 11 AM EST 828.66 717.35 2,851
1/17/2019 12 PM EST 828.69 717.32 2,690
1/17/2019 1 PM EST 828.72 717.33 2,697
1/17/2019 2 PM EST 828.75 717.54 2,702
1/17/2019 3 PM EST 828.76 718.25 3,373
1/17/2019 4 PM EST 828.76 718.31 3,404
1/17/2019 5 PM EST 828.74 719.06 3,788
1/17/2019 6 PM EST 828.73 718.35 3,781
1/17/2019 7 PM EST 828.73 717.93 3,087
1/17/2019 8 PM EST 828.71 719.05 4,096
1/17/2019 9 PM EST 828.68 719.04 4,123
1/17/2019 10 PM EST 828.65 719.02 4,115
1/17/2019 11 PM EST 828.62 719.02 4,102

Elevations are in feet above sea level. Discharges are in cubic feet per second and are reported at the end of the hour.